createdAt,value
2018-06-23T00:00:10.149Z,96445.83
2018-06-23T00:02:39.565Z,96441.80
2018-06-23T00:05:08.950Z,96440.93
2018-06-23T00:07:38.373Z,96436.30
2018-06-23T00:10:07.840Z,96436.09
2018-06-23T00:12:37.243Z,96430.64
2018-06-23T00:15:06.838Z,96430.94
2018-06-23T00:17:36.242Z,96438.69
2018-06-23T00:20:06.600Z,96440.38
2018-06-23T00:22:36.243Z,96437.17
2018-06-23T00:25:05.821Z,96437.17
2018-06-23T00:27:35.225Z,96434.22
2018-06-23T00:30:04.670Z,96432.84
2018-06-23T00:32:34.129Z,96434.53
2018-06-23T00:35:03.527Z,96430.20
2018-06-23T00:37:32.918Z,96430.20
2018-06-23T00:40:03.328Z,96426.09
2018-06-23T00:42:32.713Z,96426.05
2018-06-23T00:45:02.089Z,96424.70
2018-06-23T00:47:31.454Z,96419.86
2018-06-23T00:50:00.834Z,96424.14
2018-06-23T00:52:30.368Z,96424.14
2018-06-23T00:55:00.436Z,96430.77
2018-06-23T00:57:29.836Z,96423.89
2018-06-23T00:59:59.285Z,96424.58
2018-06-23T01:02:28.651Z,96416.66
2018-06-23T01:04:58.062Z,96421.20
2018-06-23T01:07:27.500Z,96427.35
2018-06-23T01:09:56.873Z,96420.81
2018-06-23T01:12:26.266Z,96413.67
2018-06-23T01:14:55.678Z,96415.15
2018-06-23T01:17:25.013Z,96414.28
2018-06-23T01:19:54.486Z,96417.75
2018-06-23T01:22:23.884Z,96414.02
2018-06-23T01:24:53.296Z,96415.15
2018-06-23T01:27:22.728Z,96420.98
2018-06-23T01:29:52.113Z,96422.23
2018-06-23T01:32:21.593Z,96423.23
2018-06-23T01:34:50.986Z,96422.70
2018-06-23T01:37:20.418Z,96417.86
2018-06-23T01:39:50.907Z,96413.02
2018-06-23T01:42:20.317Z,96409.78
2018-06-23T01:44:49.737Z,96406.78
2018-06-23T01:47:19.358Z,96399.48
2018-06-23T01:49:48.833Z,96403.54
2018-06-23T01:52:18.186Z,96402.51
2018-06-23T01:54:47.643Z,96401.42
2018-06-23T01:57:17.021Z,96395.11
2018-06-23T01:59:46.424Z,96392.90
2018-06-23T02:02:15.882Z,96389.66
2018-06-23T02:04:45.250Z,96392.03
2018-06-23T02:07:14.638Z,96398.52
2018-06-23T02:09:44.013Z,96393.50
2018-06-23T02:12:13.570Z,96398.09
2018-06-23T02:14:48.253Z,96395.10
2018-06-23T02:17:22.918Z,96396.19
2018-06-23T02:19:57.852Z,96399.13
2018-06-23T02:22:32.545Z,96391.95
2018-06-23T02:25:07.102Z,96395.20
2018-06-23T02:27:41.954Z,96393.50
2018-06-23T02:30:16.432Z,96390.99
2018-06-23T02:32:47.725Z,96385.98
2018-06-23T02:35:17.130Z,96388.36
2018-06-23T02:37:46.550Z,96389.09
2018-06-23T02:40:16.298Z,96388.36
2018-06-23T02:42:45.670Z,96383.47
2018-06-23T02:45:15.107Z,96383.55
2018-06-23T02:47:44.371Z,96380.02
2018-06-23T02:50:13.739Z,96375.73
2018-06-23T02:52:46.545Z,96374.44
2018-06-23T02:55:16.386Z,96379.70
2018-06-23T02:57:45.846Z,96372.87
2018-06-23T03:00:15.349Z,96373.73
2018-06-23T03:02:44.758Z,96373.48
2018-06-23T03:05:14.136Z,96371.83
2018-06-23T03:07:43.707Z,96372.13
2018-06-23T03:10:13.175Z,96373.83
2018-06-23T03:12:42.618Z,96375.16
2018-06-23T03:15:13.556Z,96372.48
2018-06-23T03:17:43.003Z,96381.77
2018-06-23T03:20:12.530Z,96383.52
2018-06-23T03:22:42.042Z,96386.58
2018-06-23T03:25:11.412Z,96384.92
2018-06-23T03:27:40.995Z,96388.17
2018-06-23T03:30:10.449Z,96390.89
2018-06-23T03:32:40.046Z,96390.84
2018-06-23T03:35:09.556Z,96386.01
2018-06-23T03:37:39.109Z,96387.39
2018-06-23T03:40:08.668Z,96388.33
2018-06-23T03:42:38.228Z,96387.17
2018-06-23T03:45:07.681Z,96391.41
2018-06-23T03:47:37.109Z,96384.12
2018-06-23T03:50:07.763Z,96389.28
2018-06-23T03:52:37.221Z,96394.66
2018-06-23T03:55:06.909Z,96399.86
2018-06-23T03:57:36.440Z,96406.83
2018-06-23T04:00:05.940Z,96401.47
2018-06-23T04:02:35.457Z,96399.34
2018-06-23T04:05:04.864Z,96398.56
2018-06-23T04:07:34.278Z,96398.87
2018-06-23T04:10:03.715Z,96404.48
2018-06-23T04:12:33.358Z,96399.70
2018-06-23T04:15:02.893Z,96397.50
2018-06-23T04:17:32.314Z,96406.02
2018-06-23T04:20:01.752Z,96400.05
2018-06-23T04:22:31.682Z,96398.10
2018-06-23T04:25:01.081Z,96396.72
2018-06-23T04:27:30.463Z,96397.40
2018-06-23T04:29:59.964Z,96393.69
2018-06-23T04:32:29.355Z,96400.64
2018-06-23T04:34:58.988Z,96393.60
2018-06-23T04:37:28.355Z,96398.23
2018-06-23T04:39:57.863Z,96402.41
2018-06-23T04:42:27.276Z,96402.04
2018-06-23T04:44:56.776Z,96402.59
2018-06-23T04:47:26.105Z,96399.66
2018-06-23T04:49:55.477Z,96407.19
2018-06-23T04:52:24.900Z,96408.66
2018-06-23T04:54:54.283Z,96403.37
2018-06-23T04:57:23.777Z,96403.37
2018-06-23T04:59:53.300Z,96409.25
2018-06-23T05:02:22.489Z,96408.53
2018-06-23T05:04:53.026Z,96413.62
2018-06-23T05:07:22.375Z,96411.23
2018-06-23T05:09:51.846Z,96412.72
2018-06-23T05:12:21.585Z,96410.91
2018-06-23T05:14:50.924Z,96411.69
2018-06-23T05:17:20.278Z,96416.66
2018-06-23T05:19:49.662Z,96415.09
2018-06-23T05:22:19.045Z,96421.83
2018-06-23T05:24:48.834Z,96422.57
2018-06-23T05:27:18.647Z,96424.69
2018-06-23T05:29:49.094Z,96416.53
2018-06-23T05:32:18.622Z,96419.66
2018-06-23T05:34:48.208Z,96421.74
2018-06-23T05:37:17.875Z,96420.36
2018-06-23T05:39:47.345Z,96417.53
2018-06-23T05:42:16.853Z,96415.59
2018-06-23T05:44:46.564Z,96409.78
2018-06-23T05:47:15.918Z,96410.05
2018-06-23T05:49:45.443Z,96411.61
2018-06-23T05:52:14.907Z,96410.52
2018-06-23T05:54:44.444Z,96412.95
2018-06-23T05:57:13.875Z,96418.61
2018-06-23T05:59:43.323Z,96413.13
2018-06-23T06:02:13.389Z,96416.89
2018-06-23T06:04:43.473Z,96417.61
2018-06-23T06:07:13.518Z,96418.76
2018-06-23T06:09:43.241Z,96414.56
2018-06-23T06:12:12.806Z,96419.61
2018-06-23T06:14:42.276Z,96417.25
2018-06-23T06:17:33.469Z,96418.33
2018-06-23T06:20:04.701Z,96421.50
2018-06-23T06:22:37.510Z,96420.72
2018-06-23T06:25:08.094Z,96415.00
2018-06-23T06:27:37.847Z,96416.58
2018-06-23T06:30:09.451Z,96419.31
2018-06-23T06:32:39.307Z,96414.56
2018-06-23T06:35:09.327Z,96415.28
2018-06-23T06:37:39.077Z,96413.58
2018-06-23T06:40:09.039Z,96416.27
2018-06-23T06:42:38.550Z,96416.30
2018-06-23T06:45:08.243Z,96416.95
2018-06-23T06:47:37.917Z,96417.66
2018-06-23T06:50:07.571Z,96417.66
2018-06-23T06:52:37.096Z,96416.92
2018-06-23T06:55:06.638Z,96410.94
2018-06-23T06:57:36.377Z,96406.91
2018-06-23T07:00:06.735Z,96403.92
2018-06-23T07:02:36.285Z,96394.94
2018-06-23T07:05:05.840Z,96395.50
2018-06-23T07:07:36.979Z,96400.66
2018-06-23T07:10:06.443Z,96401.84
2018-06-23T07:12:36.022Z,96399.20
2018-06-23T07:15:13.023Z,96406.23
2018-06-23T07:17:42.525Z,96401.11
2018-06-23T07:20:13.525Z,96404.66
2018-06-23T07:22:43.832Z,96406.16
2018-06-23T07:25:13.329Z,96394.86
2018-06-23T07:27:42.798Z,96396.50
2018-06-23T07:30:12.450Z,96383.89
2018-06-23T07:32:41.909Z,96395.61
2018-06-23T07:35:11.875Z,96392.05
2018-06-23T07:37:41.287Z,96390.99
2018-06-23T07:40:10.688Z,96389.33
2018-06-23T07:42:40.417Z,96396.08
2018-06-23T07:45:09.987Z,96403.34
2018-06-23T07:47:39.575Z,96394.47
2018-06-23T07:50:09.030Z,96388.31
2018-06-23T07:52:38.481Z,96384.04
2018-06-23T07:55:08.054Z,96378.48
2018-06-23T07:57:37.511Z,96386.63
2018-06-23T08:00:07.172Z,96379.63
2018-06-23T08:02:36.760Z,96378.59
2018-06-23T08:05:06.247Z,96380.77
2018-06-23T08:07:35.790Z,96381.58
2018-06-23T08:10:05.320Z,96386.16
2018-06-23T08:12:34.826Z,96388.84
2018-06-23T08:15:04.375Z,96379.91
2018-06-23T08:17:33.781Z,96380.73
2018-06-23T08:20:03.330Z,96382.33
2018-06-23T08:22:33.488Z,96376.39
2018-06-23T08:25:03.062Z,96379.42
2018-06-23T08:27:33.545Z,96373.22
2018-06-23T08:30:03.250Z,96368.11
2018-06-23T08:32:33.652Z,96379.45
2018-06-23T08:35:03.118Z,96375.12
2018-06-23T08:37:32.585Z,96368.38
2018-06-23T08:40:02.086Z,96370.79
2018-06-23T08:42:31.620Z,96371.08
2018-06-23T08:45:01.070Z,96369.45
2018-06-23T08:47:30.669Z,96371.36
2018-06-23T08:50:00.068Z,96366.49
2018-06-23T08:52:29.898Z,96362.18
2018-06-23T08:54:59.346Z,96359.44
2018-06-23T08:57:28.757Z,96352.69
2018-06-23T08:59:58.182Z,96348.39
2018-06-23T09:02:27.586Z,96368.35
2018-06-23T09:04:57.955Z,96349.23
2018-06-23T09:07:27.347Z,96349.50
2018-06-23T09:09:56.807Z,96352.47
2018-06-23T09:12:26.740Z,96354.34
2018-06-23T09:14:56.327Z,96351.66
2018-06-23T09:17:25.838Z,96344.39
2018-06-23T09:19:55.332Z,96337.59
2018-06-23T09:22:24.695Z,96349.77
2018-06-23T09:24:54.067Z,96352.19
2018-06-23T09:27:23.435Z,96348.15
2018-06-23T09:29:53.082Z,96348.13
2018-06-23T09:32:22.525Z,96339.98
2018-06-23T09:34:51.944Z,96334.86
2018-06-23T09:37:21.464Z,96342.92
2018-06-23T09:39:53.090Z,96335.94
2018-06-23T09:42:22.584Z,96334.08
2018-06-23T09:44:52.138Z,96333.27
2018-06-23T09:47:21.598Z,96336.22
2018-06-23T09:49:51.053Z,96341.08
2018-06-23T09:52:20.576Z,96338.06
2018-06-23T09:54:49.992Z,96334.61
2018-06-23T09:57:19.416Z,96336.22
2018-06-23T09:59:48.847Z,96340.75
2018-06-23T10:02:18.256Z,96330.13
2018-06-23T10:04:49.168Z,96338.30
2018-06-23T10:07:18.676Z,96334.53
2018-06-23T10:09:47.997Z,96333.75
2018-06-23T10:12:17.459Z,96334.28
2018-06-23T10:14:46.825Z,96333.22
2018-06-23T10:17:16.260Z,96329.36
2018-06-23T10:19:45.705Z,96323.29
2018-06-23T10:22:15.080Z,96321.78
2018-06-23T10:24:44.552Z,96319.86
2018-06-23T10:27:13.969Z,96325.85
2018-06-23T10:29:43.391Z,96318.94
2018-06-23T10:32:12.957Z,96319.37
2018-06-23T10:34:42.805Z,96318.33
2018-06-23T10:37:12.479Z,96312.41
2018-06-23T10:39:42.160Z,96313.86
2018-06-23T10:42:11.798Z,96315.80
2018-06-23T10:44:41.515Z,96317.09
2018-06-23T10:47:11.060Z,96312.87
2018-06-23T10:49:41.042Z,96306.34
2018-06-23T10:52:10.630Z,96309.11
2018-06-23T10:54:40.183Z,96305.06
2018-06-23T10:57:09.846Z,96311.35
2018-06-23T10:59:39.300Z,96308.36
2018-06-23T11:02:08.811Z,96306.27
2018-06-23T11:04:39.555Z,96308.58
2018-06-23T11:07:09.039Z,96303.63
2018-06-23T11:09:40.068Z,96314.52
2018-06-23T11:12:09.589Z,96301.27
2018-06-23T11:14:39.055Z,96298.30
2018-06-23T11:17:08.774Z,96301.59
2018-06-23T11:19:38.274Z,96299.45
2018-06-23T11:22:07.779Z,96297.14
2018-06-23T11:24:37.395Z,96294.94
2018-06-23T11:27:07.066Z,96289.87
2018-06-23T11:29:36.582Z,96295.65
2018-06-23T11:32:06.425Z,96294.64
2018-06-23T11:34:35.935Z,96295.22
2018-06-23T11:37:05.973Z,96301.98
2018-06-23T11:39:35.438Z,96297.56
2018-06-23T11:42:05.476Z,96293.58
2018-06-23T11:44:35.046Z,96293.59
2018-06-23T11:47:04.811Z,96289.14
2018-06-23T11:49:34.383Z,96282.75
2018-06-23T11:52:03.877Z,96281.56
2018-06-23T11:54:33.407Z,96269.72
2018-06-23T11:57:03.402Z,96269.58
2018-06-23T11:59:32.777Z,96275.05
2018-06-23T12:02:02.212Z,96264.17
2018-06-23T12:04:31.734Z,96262.49
2018-06-23T12:07:01.690Z,96266.36
2018-06-23T12:09:31.126Z,96269.66
2018-06-23T12:12:00.497Z,96260.86
2018-06-23T12:14:29.980Z,96253.72
2018-06-23T12:16:59.386Z,96248.34
2018-06-23T12:19:28.820Z,96265.17
2018-06-23T12:21:58.302Z,96261.27
2018-06-23T12:24:28.040Z,96267.32
2018-06-23T12:26:57.479Z,96265.08
2018-06-23T12:29:26.938Z,96246.55
2018-06-23T12:31:56.426Z,96245.70
2018-06-23T12:34:25.881Z,96248.44
2018-06-23T12:36:55.289Z,96251.60
2018-06-23T12:39:24.659Z,96247.00
2018-06-23T12:41:55.430Z,96240.05
2018-06-23T12:44:27.310Z,96241.52
2018-06-23T12:46:57.600Z,96239.36
2018-06-23T12:49:27.207Z,96237.73
2018-06-23T12:51:56.715Z,96223.86
2018-06-23T12:54:27.261Z,96232.37
2018-06-23T12:56:56.754Z,96228.67
2018-06-23T12:59:26.780Z,96222.07
2018-06-23T13:01:57.188Z,96213.92
2018-06-23T13:04:26.627Z,96204.56
2018-06-23T13:06:56.106Z,96205.44
2018-06-23T13:09:25.639Z,96201.82
2018-06-23T13:11:55.712Z,96208.59
2018-06-23T13:14:25.134Z,96205.48
2018-06-23T13:16:54.726Z,96204.67
2018-06-23T13:19:24.129Z,96210.21
2018-06-23T13:21:53.581Z,96206.12
2018-06-23T13:24:23.017Z,96197.55
2018-06-23T13:26:52.493Z,96200.46
2018-06-23T13:29:22.065Z,96201.30
2018-06-23T13:31:51.467Z,96191.13
2018-06-23T13:34:20.637Z,96202.66
2018-06-23T13:36:54.936Z,96194.75
2018-06-23T13:39:24.375Z,96194.80
2018-06-23T13:41:53.496Z,96192.57
2018-06-23T13:44:22.958Z,96193.72
2018-06-23T13:46:52.504Z,96185.62
2018-06-23T13:49:22.327Z,96186.91
2018-06-23T13:51:51.821Z,96190.14
2018-06-23T13:54:21.534Z,96187.48
2018-06-23T13:56:51.065Z,96180.19
2018-06-23T13:59:20.487Z,96183.05
2018-06-23T14:01:50.216Z,96176.38
2018-06-23T14:04:19.750Z,96170.55
2018-06-23T14:06:49.331Z,96169.21
2018-06-23T14:09:18.770Z,96183.89
2018-06-23T14:11:48.204Z,96181.96
2018-06-23T14:14:17.663Z,96180.00
2018-06-23T14:16:48.210Z,96173.75
2018-06-23T14:19:17.657Z,96185.56
2018-06-23T14:21:47.169Z,96178.52
2018-06-23T14:24:16.709Z,96187.34
2018-06-23T14:26:46.183Z,96186.63
2018-06-23T14:29:15.712Z,96183.91
2018-06-23T14:31:45.208Z,96182.17
2018-06-23T14:34:14.549Z,96184.05
2018-06-23T14:36:44.029Z,96183.13
2018-06-23T14:39:13.454Z,96181.48
2018-06-23T14:41:42.997Z,96183.25
2018-06-23T14:44:12.493Z,96177.48
2018-06-23T14:46:42.025Z,96177.66
2018-06-23T14:49:11.704Z,96175.00
2018-06-23T14:51:41.321Z,96173.16
2018-06-23T14:54:10.814Z,96177.30
2018-06-23T14:56:40.732Z,96177.52
2018-06-23T14:59:10.384Z,96175.68
2018-06-23T15:01:39.988Z,96169.45
2018-06-23T15:04:09.603Z,96169.28
2018-06-23T15:06:39.456Z,96169.39
2018-06-23T15:09:26.023Z,96171.56
2018-06-23T15:13:09.642Z,96175.87
2018-06-23T15:15:39.371Z,96169.13
2018-06-23T15:18:09.007Z,96171.45
2018-06-23T15:20:38.717Z,96182.57
2018-06-23T15:23:08.021Z,96174.75
2018-06-23T15:25:37.548Z,96181.55
2018-06-23T15:28:07.062Z,96176.27
2018-06-23T15:30:36.802Z,96178.31
2018-06-23T15:33:06.792Z,96177.31
2018-06-23T15:35:36.233Z,96176.23
2018-06-23T15:38:05.804Z,96175.67
2018-06-23T15:40:35.196Z,96179.09
2018-06-23T15:43:04.819Z,96179.62
2018-06-23T15:45:34.335Z,96176.11
2018-06-23T15:48:03.815Z,96177.06
2018-06-23T15:50:33.337Z,96172.51
2018-06-23T15:53:02.762Z,96172.72
2018-06-23T15:55:33.188Z,96172.08
2018-06-23T15:58:02.670Z,96173.03
2018-06-23T16:00:32.258Z,96172.41
2018-06-23T16:03:01.842Z,96173.16
2018-06-23T16:05:32.155Z,96176.91
2018-06-23T16:08:01.305Z,96177.67
2018-06-23T16:10:30.677Z,96174.33
2018-06-23T16:13:00.064Z,96178.48
2018-06-23T16:15:29.428Z,96177.88
2018-06-23T16:17:58.949Z,96173.91
2018-06-23T16:20:28.489Z,96175.59
2018-06-23T16:22:57.962Z,96168.27
2018-06-23T16:25:27.409Z,96175.83
2018-06-23T16:27:57.331Z,96174.33
2018-06-23T16:30:26.906Z,96173.69
2018-06-23T16:32:57.252Z,96173.11
2018-06-23T16:35:27.120Z,96172.20
2018-06-23T16:37:56.450Z,96164.09
2018-06-23T16:40:26.030Z,96171.68
2018-06-23T16:42:55.537Z,96164.17
2018-06-23T16:45:25.059Z,96159.37
2018-06-23T16:47:54.600Z,96165.84
2018-06-23T16:50:24.196Z,96163.14
2018-06-23T16:52:53.781Z,96162.93
2018-06-23T16:55:23.309Z,96164.16
2018-06-23T16:57:52.712Z,96166.70
2018-06-23T17:00:22.190Z,96164.20
2018-06-23T17:02:52.005Z,96165.65
2018-06-23T17:05:21.573Z,96160.78
2018-06-23T17:07:51.170Z,96158.95
2018-06-23T17:10:20.686Z,96169.47
2018-06-23T17:12:50.402Z,96170.09
2018-06-23T17:15:19.831Z,96162.03
2018-06-23T17:17:50.039Z,96161.50
2018-06-23T17:20:19.586Z,96161.55
2018-06-23T17:22:49.590Z,96163.03
2018-06-23T17:25:19.082Z,96169.89
2018-06-23T17:27:58.904Z,96168.73
2018-06-23T17:30:28.659Z,96168.53
2018-06-23T17:32:58.074Z,96175.03
2018-06-23T17:35:27.539Z,96170.51
2018-06-23T17:37:57.102Z,96177.50
2018-06-23T17:40:26.579Z,96177.64
2018-06-23T17:42:55.961Z,96176.30
2018-06-23T17:45:26.456Z,96172.80
2018-06-23T17:47:56.237Z,96178.17
2018-06-23T17:50:25.869Z,96177.64
2018-06-23T17:52:55.460Z,96182.30
2018-06-23T17:55:25.077Z,96187.63
2018-06-23T17:57:56.006Z,96185.30
2018-06-23T18:00:24.933Z,96189.84
2018-06-23T18:02:54.388Z,96188.23
2018-06-23T18:05:23.833Z,96196.14
2018-06-23T18:07:53.409Z,96190.98
2018-06-23T18:10:22.906Z,96189.69
2018-06-23T18:12:52.417Z,96188.94
2018-06-23T18:15:21.899Z,96187.63
2018-06-23T18:17:51.307Z,96190.91
2018-06-23T18:20:20.914Z,96191.47
2018-06-23T18:22:50.378Z,96193.09
2018-06-23T18:25:19.932Z,96198.74
2018-06-23T18:27:49.041Z,96194.17
2018-06-23T18:30:18.491Z,96191.22
2018-06-23T18:32:49.136Z,96188.24
2018-06-23T18:35:19.255Z,96194.98
2018-06-23T18:37:48.785Z,96187.70
2018-06-23T18:40:18.275Z,96182.03
2018-06-23T18:42:47.484Z,96183.66
2018-06-23T18:45:16.945Z,96190.41
2018-06-23T18:47:46.431Z,96185.55
2018-06-23T18:50:16.073Z,96182.84
2018-06-23T18:52:45.580Z,96183.06
2018-06-23T18:55:16.144Z,96189.87
2018-06-23T18:57:45.634Z,96185.83
2018-06-23T19:00:15.243Z,96186.92
2018-06-23T19:02:44.750Z,96180.69
2018-06-23T19:05:14.189Z,96185.83
2018-06-23T19:07:43.953Z,96183.91
2018-06-23T19:10:13.391Z,96181.25
2018-06-23T19:12:42.856Z,96193.63
2018-06-23T19:15:15.412Z,96194.20
2018-06-23T19:17:45.029Z,96202.28
2018-06-23T19:20:14.567Z,96202.00
2018-06-23T19:22:44.039Z,96209.25
2018-06-23T19:25:13.192Z,96207.65
2018-06-23T19:27:42.645Z,96212.20
2018-06-23T19:30:12.386Z,96208.69
2018-06-23T19:32:41.788Z,96209.84
2018-06-23T19:35:11.492Z,96207.16
2018-06-23T19:37:40.946Z,96205.80
2018-06-23T19:40:11.310Z,96211.47
2018-06-23T19:42:50.795Z,96206.88
2018-06-23T19:45:20.267Z,96212.78
2018-06-23T19:47:49.770Z,96216.03
2018-06-23T19:50:19.401Z,96215.79
2018-06-23T19:52:48.940Z,96222.48
2018-06-23T19:55:18.511Z,96226.55
2018-06-23T19:57:48.118Z,96228.44
2018-06-23T20:00:17.583Z,96231.66
2018-06-23T20:02:47.046Z,96228.45
2018-06-23T20:05:16.557Z,96229.00
2018-06-23T20:07:46.220Z,96236.52
2018-06-23T20:10:15.858Z,96235.44
2018-06-23T20:12:45.567Z,96234.62
2018-06-23T20:15:15.050Z,96231.11
2018-06-23T20:17:44.570Z,96234.60
2018-06-23T20:20:14.164Z,96238.64
2018-06-23T20:22:43.750Z,96234.36
2018-06-23T20:25:13.577Z,96239.19
2018-06-23T20:27:43.114Z,96234.88
2018-06-23T20:30:12.812Z,96230.33
2018-06-23T20:32:42.378Z,96242.71
2018-06-23T20:35:12.032Z,96235.96
2018-06-23T20:37:41.513Z,96243.25
2018-06-23T20:40:11.052Z,96240.81
2018-06-23T20:42:40.593Z,96243.80
2018-06-23T20:45:10.035Z,96232.47
2018-06-23T20:47:39.534Z,96244.05
2018-06-23T20:50:09.020Z,96242.43
2018-06-23T20:52:38.475Z,96242.43
2018-06-23T20:55:08.006Z,96245.68
2018-06-23T20:57:37.451Z,96246.73
2018-06-23T21:00:06.979Z,96245.95
2018-06-23T21:02:36.494Z,96244.05
2018-06-23T21:05:05.929Z,96248.09
2018-06-23T21:07:35.470Z,96252.91
2018-06-23T21:10:05.040Z,96248.89
2018-06-23T21:12:34.599Z,96248.60
2018-06-23T21:15:04.120Z,96250.76
2018-06-23T21:17:33.506Z,96247.55
2018-06-23T21:20:03.005Z,96245.66
2018-06-23T21:22:32.578Z,96244.86
2018-06-23T21:25:02.047Z,96243.51
2018-06-23T21:27:31.651Z,96243.76
2018-06-23T21:30:01.066Z,96241.33
2018-06-23T21:32:30.469Z,96244.85
2018-06-23T21:35:00.397Z,96243.76
2018-06-23T21:37:29.938Z,96239.45
2018-06-23T21:39:59.525Z,96241.06
2018-06-23T21:42:28.954Z,96241.59
2018-06-23T21:44:58.415Z,96239.71
2018-06-23T21:47:27.877Z,96244.84
2018-06-23T21:49:57.262Z,96244.56
2018-06-23T21:52:26.806Z,96235.94
2018-06-23T21:54:56.274Z,96237.83
2018-06-23T21:57:26.094Z,96237.83
2018-06-23T21:59:55.628Z,96244.80
2018-06-23T22:02:25.133Z,96240.52
2018-06-23T22:04:54.795Z,96243.47
2018-06-23T22:07:24.329Z,96247.50
2018-06-23T22:09:54.607Z,96248.03
2018-06-23T22:12:24.719Z,96244.53
2018-06-23T22:14:54.227Z,96244.55
2018-06-23T22:17:23.767Z,96248.05
2018-06-23T22:19:53.246Z,96246.68
2018-06-23T22:22:25.886Z,96247.19
2018-06-23T22:24:55.355Z,96249.87
2018-06-23T22:27:25.550Z,96253.63
2018-06-23T22:29:54.949Z,96252.27
2018-06-23T22:32:24.453Z,96249.59
2018-06-23T22:34:53.904Z,96241.77
2018-06-23T22:37:23.986Z,96247.97
2018-06-23T22:39:54.699Z,96243.40
2018-06-23T22:42:24.116Z,96241.52
2018-06-23T22:44:53.602Z,96245.55
2018-06-23T22:47:23.050Z,96242.59
2018-06-23T22:49:52.562Z,96238.55
2018-06-23T22:52:22.131Z,96240.15
2018-06-23T22:54:51.733Z,96236.94
2018-06-23T22:57:21.193Z,96237.20
2018-06-23T22:59:51.719Z,96236.66
2018-06-23T23:02:21.179Z,96236.13
2018-06-23T23:04:50.695Z,96239.06
2018-06-23T23:07:20.496Z,96233.97
2018-06-23T23:09:49.967Z,96240.16
2018-06-23T23:12:19.415Z,96239.06
2018-06-23T23:14:48.892Z,96237.46
2018-06-23T23:17:18.288Z,96235.83
2018-06-23T23:19:47.675Z,96236.13
2018-06-23T23:22:17.131Z,96229.62
2018-06-23T23:24:46.588Z,96230.73
2018-06-23T23:27:15.986Z,96232.59
2018-06-23T23:29:45.417Z,96238.23
2018-06-23T23:32:14.830Z,96233.92
2018-06-23T23:34:44.411Z,96236.30
2018-06-23T23:37:13.820Z,96231.70
2018-06-23T23:39:43.302Z,96235.44
2018-06-23T23:42:12.796Z,96232.73
2018-06-23T23:44:42.233Z,96231.92
2018-06-23T23:47:11.657Z,96232.20
2018-06-23T23:49:41.009Z,96233.78
2018-06-23T23:52:10.393Z,96231.89
2018-06-23T23:54:39.865Z,96237.78
2018-06-23T23:57:09.533Z,96239.36
2018-06-23T23:59:39.143Z,96229.67
